createdAt,value
2022-12-01T00:01:47.979Z,19.23
2022-12-01T00:05:12.900Z,19.50
2022-12-01T00:08:27.902Z,17.87
2022-12-01T00:11:27.310Z,18.00
2022-12-01T00:14:40.802Z,19.70
2022-12-01T00:17:56.999Z,18.50
2022-12-01T00:21:11.845Z,18.77
2022-12-01T00:24:25.939Z,18.60
2022-12-01T00:27:25.921Z,18.87
2022-12-01T00:30:51.937Z,17.50
2022-12-01T00:34:08.266Z,17.97
2022-12-01T00:37:15.954Z,17.73
2022-12-01T00:40:27.941Z,17.50
2022-12-01T00:43:44.001Z,17.80
2022-12-01T00:46:59.998Z,18.70
2022-12-01T00:50:13.055Z,18.20
2022-12-01T00:53:13.000Z,18.93
2022-12-01T00:56:24.965Z,19.67
2022-12-01T00:59:26.002Z,18.03
2022-12-01T01:02:52.107Z,18.27
2022-12-01T01:06:05.061Z,17.40
2022-12-01T01:09:17.075Z,18.00
2022-12-01T01:12:17.061Z,18.23
2022-12-01T01:15:29.075Z,18.23
2022-12-01T01:18:55.226Z,20.20
2022-12-01T01:22:07.141Z,19.63
2022-12-01T01:25:07.141Z,23.63
2022-12-01T01:28:19.143Z,19.00
2022-12-01T01:31:31.115Z,23.00
2022-12-01T01:34:57.152Z,20.70
2022-12-01T01:38:00.133Z,17.03
2022-12-01T01:41:24.118Z,19.53
2022-12-01T01:44:43.147Z,23.90
2022-12-01T01:47:56.192Z,19.17
2022-12-01T01:51:12.174Z,23.40
2022-12-01T01:54:36.147Z,19.93
2022-12-01T01:57:48.226Z,24.70
2022-12-01T02:01:12.210Z,21.93
2022-12-01T02:04:36.205Z,21.95
2022-12-01T02:07:50.321Z,22.50
2022-12-01T02:11:27.253Z,24.47
2022-12-01T02:14:43.233Z,20.43
2022-12-01T02:18:08.231Z,23.23
2022-12-01T02:21:24.221Z,24.30
2022-12-01T02:24:51.275Z,20.60
2022-12-01T02:28:09.259Z,22.13
2022-12-01T02:31:35.225Z,25.53
2022-12-01T02:34:47.348Z,21.20
2022-12-01T02:38:11.349Z,22.43
2022-12-01T02:41:24.290Z,24.10
2022-12-01T02:44:49.392Z,20.60
2022-12-01T02:48:07.316Z,23.03
2022-12-01T02:51:31.385Z,19.50
2022-12-01T02:54:43.332Z,21.17
2022-12-01T02:57:55.358Z,21.87
2022-12-01T03:01:08.417Z,21.23
2022-12-01T03:04:41.415Z,22.20
2022-12-01T03:07:59.478Z,21.63
2022-12-01T03:11:24.536Z,20.30
2022-12-01T03:14:37.404Z,22.43
2022-12-01T03:18:01.436Z,22.00
2022-12-01T03:21:14.494Z,21.27
2022-12-01T03:24:38.452Z,22.90
2022-12-01T03:28:13.877Z,20.07
2022-12-01T03:31:15.528Z,20.83
2022-12-01T03:34:27.517Z,20.57
2022-12-01T03:37:52.505Z,19.73
2022-12-01T03:41:05.492Z,20.17
2022-12-01T03:44:30.494Z,20.23
2022-12-01T03:47:42.505Z,22.40
2022-12-01T03:51:09.621Z,19.85
2022-12-01T03:54:26.573Z,21.20
2022-12-01T03:57:50.538Z,20.40
2022-12-01T04:01:04.526Z,20.00
2022-12-01T04:04:31.526Z,18.37
2022-12-01T04:07:43.641Z,20.85
2022-12-01T04:11:11.625Z,20.57
2022-12-01T04:13:59.057Z,19.33
2022-12-01T04:17:11.822Z,19.10
2022-12-01T04:20:11.575Z,19.93
2022-12-01T04:23:23.620Z,21.60
2022-12-01T04:26:37.680Z,20.03
2022-12-01T04:29:50.932Z,21.70
2022-12-01T04:33:02.759Z,19.63
2022-12-01T04:36:15.811Z,20.17
2022-12-01T04:39:18.652Z,21.20
2022-12-01T04:42:44.728Z,18.93
2022-12-01T04:45:56.739Z,20.37
2022-12-01T04:49:08.698Z,20.45
2022-12-01T04:52:08.756Z,20.80
2022-12-01T04:55:21.758Z,19.07
2022-12-01T04:58:35.681Z,21.57
2022-12-01T05:01:48.845Z,21.57
2022-12-01T05:04:51.724Z,19.17
2022-12-01T05:08:03.866Z,24.25
2022-12-01T05:11:20.767Z,23.00
2022-12-01T05:14:45.784Z,20.67
2022-12-01T05:17:57.787Z,21.57
2022-12-01T05:20:57.252Z,20.23
2022-12-01T05:24:09.781Z,20.27
2022-12-01T05:27:21.995Z,21.07
2022-12-01T05:30:36.851Z,19.90
2022-12-01T05:33:48.865Z,19.70
2022-12-01T05:36:48.833Z,20.17
2022-12-01T05:40:01.864Z,21.20
2022-12-01T05:43:01.907Z,23.93
2022-12-01T05:46:27.869Z,20.25
2022-12-01T05:49:28.980Z,23.10
2022-12-01T05:52:41.860Z,22.77
2022-12-01T05:55:41.897Z,20.57
2022-12-01T05:58:53.900Z,23.67
2022-12-01T06:02:08.049Z,20.87
2022-12-01T06:05:36.137Z,20.85
2022-12-01T06:08:36.036Z,18.75
2022-12-01T06:11:51.264Z,20.30
2022-12-01T06:14:48.014Z,21.93
2022-12-01T06:18:16.918Z,20.07
2022-12-01T06:21:28.965Z,20.53
2022-12-01T06:24:40.997Z,20.27
2022-12-01T06:27:52.992Z,18.85
2022-12-01T06:31:06.035Z,20.25
2022-12-01T06:34:18.993Z,18.97
2022-12-01T06:37:31.032Z,21.70
2022-12-01T06:40:31.128Z,20.23
2022-12-01T06:43:55.075Z,19.03
2022-12-01T06:46:58.110Z,20.73
2022-12-01T06:50:24.095Z,19.27
2022-12-01T06:53:24.048Z,19.83
2022-12-01T06:56:48.074Z,19.07
2022-12-01T06:59:48.282Z,24.97
2022-12-01T07:03:00.255Z,18.37
2022-12-01T07:06:21.087Z,19.87
2022-12-01T07:09:34.161Z,23.60
2022-12-01T07:12:34.201Z,23.10
2022-12-01T07:15:46.216Z,19.20
2022-12-01T07:19:01.279Z,22.57
2022-12-01T07:22:32.430Z,19.73
2022-12-01T07:25:27.216Z,20.35
2022-12-01T07:28:51.214Z,21.40
2022-12-01T07:32:03.389Z,19.87
2022-12-01T07:35:16.251Z,20.70
2022-12-01T07:38:30.282Z,25.93
2022-12-01T07:41:42.283Z,21.63
2022-12-01T07:44:46.324Z,19.93
2022-12-01T07:47:59.242Z,20.57
2022-12-01T07:50:59.269Z,20.90
2022-12-01T07:54:26.271Z,20.45
2022-12-01T07:57:28.360Z,22.30
2022-12-01T08:00:43.268Z,22.40
2022-12-01T08:04:07.363Z,18.60
2022-12-01T08:07:07.335Z,21.03
2022-12-01T08:10:34.389Z,19.53
2022-12-01T08:13:52.321Z,19.13
2022-12-01T08:17:04.377Z,19.40
2022-12-01T08:20:04.353Z,20.70
2022-12-01T08:23:28.349Z,23.43
2022-12-01T08:26:42.383Z,19.75
2022-12-01T08:29:54.419Z,18.37
2022-12-01T08:32:55.564Z,20.40
2022-12-01T08:36:07.381Z,18.77
2022-12-01T08:39:19.459Z,18.53
2022-12-01T08:42:45.464Z,19.33
2022-12-01T08:45:45.490Z,21.73
2022-12-01T08:49:10.489Z,20.40
2022-12-01T08:52:10.419Z,18.27
2022-12-01T08:55:34.458Z,19.90
2022-12-01T08:58:48.502Z,19.73
2022-12-01T09:02:07.236Z,19.13
2022-12-01T09:05:09.643Z,19.73
2022-12-01T09:08:27.203Z,18.40
2022-12-01T09:11:42.573Z,19.95
2022-12-01T09:15:08.170Z,21.13
2022-12-01T09:18:08.554Z,20.23
2022-12-01T09:21:36.638Z,18.10
2022-12-01T09:24:48.627Z,18.63
2022-12-01T09:28:01.557Z,21.60
2022-12-01T09:31:15.601Z,18.83
2022-12-01T09:34:40.636Z,19.87
2022-12-01T09:37:40.642Z,20.43
2022-12-01T09:41:04.606Z,24.93
2022-12-01T09:44:17.599Z,20.20
2022-12-01T09:47:43.588Z,23.40
2022-12-01T09:50:55.621Z,23.13
2022-12-01T09:54:19.651Z,19.90
2022-12-01T09:57:31.689Z,21.07
2022-12-01T10:00:55.747Z,22.90
2022-12-01T10:04:24.720Z,18.70
2022-12-01T10:07:36.870Z,22.33
2022-12-01T10:11:00.720Z,20.60
2022-12-01T10:14:00.695Z,20.17
2022-12-01T10:17:25.800Z,21.00
2022-12-01T10:20:39.754Z,20.63
2022-12-01T10:24:08.812Z,21.53
2022-12-01T10:27:20.755Z,22.33
2022-12-01T10:30:44.739Z,19.55
2022-12-01T10:33:56.833Z,20.47
2022-12-01T10:37:23.772Z,19.27
2022-12-01T10:40:36.788Z,21.77
2022-12-01T10:44:00.766Z,19.53
2022-12-01T10:47:12.852Z,20.75
2022-12-01T10:50:37.750Z,20.83
2022-12-01T10:53:54.875Z,19.90
2022-12-01T10:57:19.832Z,19.20
2022-12-01T11:03:59.922Z,19.47
2022-12-01T11:07:12.918Z,19.93
2022-12-01T11:10:41.846Z,18.00
2022-12-01T11:13:56.943Z,19.25
2022-12-01T11:17:08.881Z,19.90
2022-12-01T11:20:21.028Z,19.47
2022-12-01T11:23:45.934Z,20.27
2022-12-01T11:26:59.919Z,19.87
2022-12-01T11:30:23.949Z,19.33
2022-12-01T11:33:36.013Z,19.33
2022-12-01T11:37:03.909Z,18.40
2022-12-01T11:40:16.090Z,19.40
2022-12-01T11:43:50.516Z,19.03
2022-12-01T11:47:21.777Z,18.47
2022-12-01T11:50:23.034Z,19.37
2022-12-01T11:53:45.018Z,19.83
2022-12-01T11:57:33.276Z,17.83
2022-12-01T12:00:23.039Z,18.17
2022-12-01T12:03:47.047Z,17.00
2022-12-01T12:06:59.066Z,19.03
2022-12-01T12:10:26.118Z,17.93
2022-12-01T12:13:41.052Z,17.65
2022-12-01T12:17:12.078Z,18.10
2022-12-01T12:20:26.059Z,16.23
2022-12-01T12:23:52.106Z,17.63
2022-12-01T12:27:04.164Z,17.30
2022-12-01T12:30:30.162Z,18.15
2022-12-01T12:33:46.249Z,15.93
2022-12-01T12:37:12.183Z,16.37
2022-12-01T12:40:27.156Z,16.90
2022-12-01T12:43:52.334Z,17.13
2022-12-01T12:47:05.203Z,17.83
2022-12-01T12:50:33.169Z,16.07
2022-12-01T12:53:45.223Z,16.45
2022-12-01T12:57:09.315Z,17.20
2022-12-01T13:00:22.211Z,16.67
2022-12-01T13:03:46.237Z,14.97
2022-12-01T13:07:00.235Z,15.30
2022-12-01T13:10:25.283Z,16.87
2022-12-01T13:13:38.307Z,16.73
2022-12-01T13:17:02.246Z,15.43
2022-12-01T13:20:05.362Z,13.83
2022-12-01T13:23:30.427Z,15.00
2022-12-01T13:26:42.257Z,15.47
2022-12-01T13:30:08.323Z,15.63
2022-12-01T13:33:23.336Z,15.33
2022-12-01T13:36:48.444Z,16.50
2022-12-01T13:40:02.300Z,16.60
2022-12-01T13:43:26.472Z,17.13
2022-12-01T13:46:44.509Z,13.87
2022-12-01T13:50:08.404Z,15.03
2022-12-01T13:53:29.552Z,15.85
2022-12-01T13:57:04.424Z,16.27
2022-12-01T14:00:37.516Z,16.30
2022-12-01T14:04:04.422Z,16.83
2022-12-01T14:07:21.419Z,19.33
2022-12-01T14:10:49.431Z,16.05
2022-12-01T14:14:03.437Z,15.33
2022-12-01T14:17:28.528Z,16.87
2022-12-01T14:20:42.513Z,18.47
2022-12-01T14:24:10.441Z,16.13
2022-12-01T14:27:25.540Z,19.63
2022-12-01T14:30:55.576Z,17.00
2022-12-01T14:34:17.340Z,16.60
2022-12-01T14:37:36.475Z,18.20
2022-12-01T14:40:48.545Z,18.50
2022-12-01T14:44:18.632Z,18.20
2022-12-01T14:47:30.525Z,20.23
2022-12-01T14:51:04.570Z,19.67
2022-12-01T14:54:16.656Z,19.03
2022-12-01T14:57:41.571Z,19.13
2022-12-01T15:00:53.644Z,19.43
2022-12-01T15:04:18.580Z,18.37
2022-12-01T15:07:32.734Z,18.97
2022-12-01T15:10:57.617Z,19.80
2022-12-01T15:14:09.712Z,23.20
2022-12-01T15:17:47.663Z,20.77
2022-12-01T15:20:59.668Z,19.90
2022-12-01T15:24:27.672Z,19.23
2022-12-01T15:27:48.713Z,22.60
2022-12-01T15:31:12.680Z,19.73
2022-12-01T15:34:24.735Z,20.07
2022-12-01T15:37:52.734Z,21.53
2022-12-01T15:41:28.382Z,22.93
2022-12-01T15:44:29.727Z,23.97
2022-12-01T15:47:57.735Z,21.37
2022-12-01T15:51:25.824Z,24.17
2022-12-01T15:54:40.718Z,24.47
2022-12-01T15:58:06.779Z,22.80
2022-12-01T16:01:18.836Z,25.47
2022-12-01T16:04:42.837Z,24.53
2022-12-01T16:08:14.029Z,22.83
2022-12-01T16:11:34.981Z,21.77
2022-12-01T16:14:49.075Z,23.50
2022-12-01T16:18:12.874Z,23.47
2022-12-01T16:21:26.815Z,24.80
2022-12-01T16:24:52.039Z,26.03
2022-12-01T16:28:03.853Z,23.53
2022-12-01T16:31:29.899Z,22.67
2022-12-01T16:34:57.007Z,28.43
2022-12-01T16:37:53.901Z,23.63
2022-12-01T16:41:06.054Z,24.70
2022-12-01T16:44:28.666Z,22.83
2022-12-01T16:47:36.987Z,23.93
2022-12-01T16:51:02.009Z,25.80
2022-12-01T16:54:02.002Z,28.40
2022-12-01T16:57:13.909Z,29.97
2022-12-01T17:00:13.979Z,26.00
2022-12-01T17:03:40.034Z,25.73
2022-12-01T17:06:40.051Z,24.03
2022-12-01T17:09:54.980Z,25.30
2022-12-01T17:12:55.006Z,33.33
2022-12-01T17:16:19.141Z,29.53
2022-12-01T17:19:33.002Z,27.90
2022-12-01T17:23:00.006Z,27.33
2022-12-01T17:26:00.099Z,26.57
2022-12-01T17:29:12.062Z,27.27
2022-12-01T17:32:24.092Z,27.70
2022-12-01T17:35:50.090Z,26.23
2022-12-01T17:39:02.101Z,27.60
2022-12-01T17:42:14.111Z,29.07
2022-12-01T17:45:14.108Z,28.03
2022-12-01T17:48:29.078Z,25.87
2022-12-01T17:51:55.147Z,26.30
2022-12-01T17:55:19.065Z,25.00
2022-12-01T17:58:31.133Z,24.67
2022-12-01T18:01:59.186Z,24.90
2022-12-01T18:05:14.239Z,25.83
2022-12-01T18:08:28.133Z,25.13
2022-12-01T18:11:41.283Z,24.37
2022-12-01T18:14:41.196Z,26.43
2022-12-01T18:17:53.181Z,24.83
2022-12-01T18:21:05.231Z,24.67
2022-12-01T18:24:31.232Z,25.20
2022-12-01T18:27:43.258Z,24.20
2022-12-01T18:30:58.298Z,26.03
2022-12-01T18:33:58.253Z,23.37
2022-12-01T18:37:22.235Z,23.25
2022-12-01T18:40:37.264Z,24.37
2022-12-01T18:43:53.340Z,25.23
2022-12-01T18:47:05.354Z,23.73
2022-12-01T18:50:18.272Z,25.30
2022-12-01T18:53:18.263Z,25.37
2022-12-01T18:56:43.299Z,24.63
2022-12-01T18:59:43.283Z,24.43
2022-12-01T19:02:56.371Z,24.53
2022-12-01T19:05:59.393Z,23.30
2022-12-01T19:09:23.387Z,25.97
2022-12-01T19:12:40.983Z,24.93
2022-12-01T19:15:52.501Z,23.07
2022-12-01T19:19:04.356Z,23.40
2022-12-01T19:22:19.383Z,24.60
2022-12-01T19:25:20.353Z,24.40
2022-12-01T19:28:47.390Z,23.07
2022-12-01T19:32:02.472Z,23.00
2022-12-01T19:35:29.476Z,22.60
2022-12-01T19:38:53.462Z,23.05
2022-12-01T19:42:06.486Z,23.20
2022-12-01T19:45:23.441Z,23.60
2022-12-01T19:48:36.453Z,23.17
2022-12-01T19:51:48.473Z,22.93
2022-12-01T19:55:00.469Z,22.87
2022-12-01T19:58:15.553Z,23.20
2022-12-01T20:01:41.669Z,21.80
2022-12-01T20:04:53.538Z,24.67
2022-12-01T20:07:53.790Z,24.80
2022-12-01T20:11:05.594Z,23.80
2022-12-01T20:14:17.595Z,23.93
2022-12-01T20:17:45.549Z,23.80
2022-12-01T20:20:45.617Z,22.00
2022-12-01T20:24:09.623Z,22.77
2022-12-01T20:27:09.584Z,25.10
2022-12-01T20:30:22.607Z,22.80
2022-12-01T20:33:36.664Z,23.30
2022-12-01T20:37:00.691Z,23.45
2022-12-01T20:40:00.625Z,23.80
2022-12-01T20:43:12.719Z,23.87
2022-12-01T20:46:24.734Z,22.87
2022-12-01T20:49:58.116Z,21.67
2022-12-01T20:52:53.665Z,21.67
2022-12-01T20:56:20.693Z,21.93
2022-12-01T20:59:20.696Z,21.83
2022-12-01T21:02:36.753Z,22.00
2022-12-01T21:05:50.777Z,21.77
2022-12-01T21:09:14.752Z,20.70
2022-12-01T21:12:32.231Z,21.00
2022-12-01T21:16:03.471Z,20.70
2022-12-01T21:19:09.794Z,21.85
2022-12-01T21:22:38.780Z,19.97
2022-12-01T21:25:53.812Z,19.43
2022-12-01T21:29:17.856Z,19.10
2022-12-01T21:32:36.221Z,20.17
2022-12-01T21:35:46.796Z,18.57
2022-12-01T21:38:59.895Z,19.30
2022-12-01T21:42:23.809Z,18.13
2022-12-01T21:45:42.855Z,19.37
2022-12-01T21:49:09.821Z,17.43
2022-12-01T21:52:21.904Z,18.03
2022-12-01T21:55:59.998Z,18.67
2022-12-01T21:59:14.914Z,17.50
2022-12-01T22:02:44.043Z,17.87
2022-12-01T22:06:28.646Z,17.33
2022-12-01T22:09:20.903Z,16.80
2022-12-01T22:12:46.925Z,17.45
2022-12-01T22:15:59.970Z,17.10
2022-12-01T22:19:23.910Z,16.83
2022-12-01T22:22:41.005Z,17.05
2022-12-01T22:26:04.971Z,16.83
2022-12-01T22:29:17.995Z,17.93
2022-12-01T22:32:57.961Z,17.77
2022-12-01T22:36:09.976Z,16.45
2022-12-01T22:39:34.977Z,16.97
2022-12-01T22:42:47.052Z,18.33
2022-12-01T22:46:14.050Z,16.40
2022-12-01T22:49:27.103Z,18.97
2022-12-01T22:52:52.086Z,16.57
2022-12-01T22:56:04.080Z,15.50
2022-12-01T22:59:35.262Z,17.60
2022-12-01T23:02:49.184Z,17.27
2022-12-01T23:06:13.131Z,18.43
2022-12-01T23:09:28.221Z,15.87
2022-12-01T23:12:56.152Z,15.43
2022-12-01T23:16:09.252Z,16.05
2022-12-01T23:19:35.191Z,18.53
2022-12-01T23:22:35.141Z,17.20
2022-12-01T23:25:59.204Z,16.30
2022-12-01T23:28:59.160Z,18.00
2022-12-01T23:32:11.256Z,17.47
2022-12-01T23:35:25.174Z,17.53
2022-12-01T23:38:49.246Z,16.50
2022-12-01T23:42:01.247Z,16.75
2022-12-01T23:45:25.243Z,17.70
2022-12-01T23:48:39.223Z,19.03
2022-12-01T23:52:05.277Z,16.87
2022-12-01T23:55:08.227Z,17.37
2022-12-01T23:58:36.233Z,17.95
